Time;durP1;ratioP1;P1;durP2;ratioP2;P2;SDS_P1;SDS_P2;PMS_P1;PMS_P2;Temp;Humidity;BMP_temperature;BMP_pressure;BME280_temperature;BME280_humidity;BME280_pressure;Samples;Min_cycle;Max_cycle;Signal;HPM_P1;HPM_P2
2020/12/30 00:01:01;;;;;;;7.37;5.40;;;3.20;99.90;;;;;;5067960;28;20868;-71
2020/12/30 00:03:27;;;;;;;7.47;5.90;;;3.20;99.90;;;;;;5068513;28;20439;-71
2020/12/30 00:05:55;;;;;;;5.90;5.30;;;3.10;99.90;;;;;;5067811;28;20438;-71
2020/12/30 00:08:21;;;;;;;5.93;5.33;;;3.10;99.90;;;;;;5068065;28;20856;-71
2020/12/30 00:10:48;;;;;;;8.77;5.93;;;3.10;99.90;;;;;;5067976;28;20479;-71
2020/12/30 00:13:14;;;;;;;9.70;6.87;;;3.10;99.90;;;;;;5068581;28;20446;-71
2020/12/30 00:15:41;;;;;;;7.10;5.17;;;3.10;99.90;;;;;;5066633;28;20570;-71
2020/12/30 00:18:07;;;;;;;7.47;6.20;;;3.10;99.90;;;;;;5055785;28;20464;-71
2020/12/30 00:20:34;;;;;;;8.63;5.63;;;3.00;99.90;;;;;;5048116;28;20888;-71
2020/12/30 00:23:01;;;;;;;6.97;5.17;;;3.00;99.90;;;;;;5066332;28;20457;-71
2020/12/30 00:25:28;;;;;;;8.03;5.30;;;3.10;99.90;;;;;;5067946;28;20455;-71
2020/12/30 00:27:54;;;;;;;6.60;5.20;;;3.20;99.90;;;;;;5067204;28;20922;-71
2020/12/30 00:30:21;;;;;;;7.03;4.33;;;3.20;99.90;;;;;;5067539;28;20470;-71
2020/12/30 00:32:49;;;;;;;8.03;4.80;;;3.30;99.90;;;;;;5063748;28;20669;-71
2020/12/30 00:35:17;;;;;;;5.00;4.10;;;3.40;99.90;;;;;;5065636;28;20473;-71
2020/12/30 00:37:44;;;;;;;5.20;4.30;;;3.50;99.90;;;;;;5067633;28;20505;-71
2020/12/30 00:40:12;;;;;;;4.57;3.93;;;3.50;99.90;;;;;;5068167;28;20447;-71
2020/12/30 00:42:39;;;;;;;5.90;4.90;;;3.60;99.90;;;;;;5068062;28;20906;-71
2020/12/30 00:45:08;;;;;;;7.00;4.33;;;3.60;99.90;;;;;;5067784;28;20486;-71
2020/12/30 00:47:34;;;;;;;4.97;4.20;;;3.70;99.90;;;;;;5061552;28;20463;-71
2020/12/30 00:50:01;;;;;;;6.63;4.63;;;3.60;99.90;;;;;;5068655;28;20509;-71
2020/12/30 00:52:28;;;;;;;5.87;4.73;;;3.70;99.90;;;;;;5061561;28;20520;-71
2020/12/30 00:54:54;;;;;;;6.50;4.33;;;3.70;99.90;;;;;;5067524;28;20899;-71
2020/12/30 00:57:22;;;;;;;6.90;4.13;;;3.70;99.90;;;;;;5067275;28;21014;-71
2020/12/30 00:59:48;;;;;;;7.90;3.90;;;3.70;99.90;;;;;;5067730;28;20545;-71
2020/12/30 01:02:15;;;;;;;6.43;4.40;;;3.70;99.90;;;;;;5068077;28;20979;-71
2020/12/30 01:04:42;;;;;;;5.73;4.23;;;3.80;99.90;;;;;;5070958;28;20439;-71
2020/12/30 01:07:09;;;;;;;5.90;4.50;;;3.80;99.90;;;;;;5070213;28;20909;-71
2020/12/30 01:09:35;;;;;;;4.30;3.80;;;3.80;99.90;;;;;;5062313;28;20829;-71
2020/12/30 01:12:03;;;;;;;6.10;4.20;;;3.80;99.90;;;;;;5051041;28;20549;-71
2020/12/30 01:14:31;;;;;;;5.90;4.73;;;3.80;99.90;;;;;;5050879;28;20432;-71
2020/12/30 01:16:58;;;;;;;8.93;4.40;;;3.80;99.90;;;;;;5050868;28;20463;-71
2020/12/30 01:19:25;;;;;;;7.00;4.30;;;3.80;99.90;;;;;;5050841;28;20435;-71
2020/12/30 01:21:52;;;;;;;4.43;3.40;;;3.80;99.90;;;;;;5056871;28;20450;-71
2020/12/30 01:24:18;;;;;;;4.40;3.50;;;3.80;99.90;;;;;;5056405;28;20436;-71
2020/12/30 01:26:46;;;;;;;5.30;4.07;;;3.80;99.90;;;;;;5072641;28;20458;-71
2020/12/30 01:29:13;;;;;;;4.97;3.90;;;3.80;99.90;;;;;;5091058;28;20798;-71
2020/12/30 01:31:41;;;;;;;6.03;3.37;;;3.80;99.90;;;;;;5091535;28;20439;-71
2020/12/30 01:34:08;;;;;;;3.43;3.13;;;3.80;99.90;;;;;;5091234;28;20460;-71
2020/12/30 01:36:36;;;;;;;4.73;3.37;;;3.90;99.90;;;;;;5090970;28;20911;-71
2020/12/30 01:39:03;;;;;;;4.13;3.60;;;3.90;99.90;;;;;;5090934;28;20480;-71
2020/12/30 01:41:30;;;;;;;3.40;2.80;;;4.00;99.90;;;;;;5090911;28;20434;-71
2020/12/30 01:43:58;;;;;;;4.40;2.97;;;4.00;99.90;;;;;;5091323;28;20434;-71
2020/12/30 01:46:38;;;;;;;7.63;3.20;;;4.00;99.90;;;;;;5090760;28;20454;-71
2020/12/30 01:49:08;;;;;;;4.77;3.00;;;4.00;99.90;;;;;;5091026;28;20771;-71
2020/12/30 01:51:36;;;;;;;3.00;2.70;;;4.10;99.90;;;;;;5090974;28;20812;-71
2020/12/30 01:54:03;;;;;;;3.03;2.30;;;4.10;99.90;;;;;;5090639;28;20426;-71
2020/12/30 01:56:32;;;;;;;3.70;2.97;;;4.20;99.90;;;;;;5090553;28;20450;-71
2020/12/30 01:58:59;;;;;;;4.03;2.93;;;4.20;99.90;;;;;;5091023;28;20446;-71
2020/12/30 02:01:29;;;;;;;2.90;2.47;;;4.20;99.90;;;;;;5091041;28;20433;-71
2020/12/30 02:03:58;;;;;;;4.17;2.70;;;4.20;99.90;;;;;;5090812;28;20934;-71
2020/12/30 02:06:26;;;;;;;4.20;2.97;;;4.30;99.90;;;;;;5090547;28;20458;-71
2020/12/30 02:08:53;;;;;;;3.33;2.70;;;4.30;99.90;;;;;;5090553;28;20442;-71
2020/12/30 02:11:24;;;;;;;4.70;2.90;;;4.30;99.90;;;;;;5090543;28;20534;-71
2020/12/30 02:14:04;;;;;;;3.40;2.50;;;4.30;99.90;;;;;;5089537;28;20441;-71
2020/12/30 02:16:30;;;;;;;4.60;2.67;;;4.30;99.90;;;;;;5090464;28;20454;-71
2020/12/30 02:18:59;;;;;;;6.23;3.30;;;4.30;99.90;;;;;;5090532;28;20998;-71
2020/12/30 02:21:26;;;;;;;3.70;3.20;;;4.30;99.90;;;;;;5090397;28;20521;-71
2020/12/30 02:23:56;;;;;;;3.50;2.37;;;4.30;99.90;;;;;;5090481;28;20438;-71
2020/12/30 02:26:24;;;;;;;4.20;3.00;;;4.30;99.90;;;;;;5089863;28;20489;-71
2020/12/30 02:28:50;;;;;;;3.70;2.80;;;4.30;99.90;;;;;;5090208;28;20649;-71
2020/12/30 02:31:17;;;;;;;3.20;2.70;;;4.30;99.90;;;;;;5090416;28;20474;-71
2020/12/30 02:33:43;;;;;;;4.83;3.13;;;4.20;99.90;;;;;;5090370;28;20905;-71
2020/12/30 02:36:10;;;;;;;4.63;2.90;;;4.20;99.90;;;;;;5089649;28;20430;-71
2020/12/30 02:38:36;;;;;;;4.53;3.00;;;4.00;99.90;;;;;;5090266;28;20844;-71
2020/12/30 02:41:05;;;;;;;3.10;2.73;;;4.00;99.90;;;;;;5090108;28;20427;-71
2020/12/30 02:43:32;;;;;;;3.50;2.73;;;3.80;99.90;;;;;;5089633;28;20434;-71
2020/12/30 02:45:59;;;;;;;4.50;2.27;;;3.80;99.90;;;;;;5090088;28;20442;-71
2020/12/30 02:48:25;;;;;;;5.00;2.83;;;3.80;99.90;;;;;;5090003;28;20430;-71
2020/12/30 02:50:53;;;;;;;3.50;2.80;;;3.70;99.90;;;;;;5090107;28;20474;-71
2020/12/30 02:53:19;;;;;;;3.47;2.80;;;3.70;99.90;;;;;;5089803;28;20973;-71
2020/12/30 02:55:47;;;;;;;3.73;2.40;;;3.70;99.90;;;;;;5089738;28;20430;-71
2020/12/30 02:58:13;;;;;;;3.70;2.63;;;3.80;99.90;;;;;;5089822;28;20470;-71
2020/12/30 03:00:41;;;;;;;2.67;2.10;;;3.80;99.90;;;;;;5089883;28;20496;-71
2020/12/30 03:03:07;;;;;;;3.00;2.60;;;3.80;99.90;;;;;;5089985;28;20430;-71
2020/12/30 03:05:34;;;;;;;4.10;2.50;;;3.80;99.90;;;;;;5089079;28;20449;-71
2020/12/30 03:08:00;;;;;;;5.07;3.00;;;3.80;99.90;;;;;;5088533;28;20458;-71
2020/12/30 03:10:27;;;;;;;4.07;2.50;;;3.80;99.90;;;;;;5068708;28;20482;-71
2020/12/30 03:12:53;;;;;;;3.20;2.17;;;3.80;99.90;;;;;;5067553;28;20945;-71
2020/12/30 03:15:20;;;;;;;2.40;2.20;;;3.80;99.90;;;;;;5069007;28;20937;-71
2020/12/30 03:17:47;;;;;;;3.27;2.23;;;3.80;99.90;;;;;;5068953;28;20451;-71
2020/12/30 03:20:14;;;;;;;2.53;2.00;;;3.80;99.90;;;;;;5069057;28;20439;-71
2020/12/30 03:22:40;;;;;;;3.77;2.40;;;3.80;99.90;;;;;;5069232;28;20451;-71
2020/12/30 03:25:07;;;;;;;3.87;2.23;;;3.80;99.90;;;;;;5068863;28;20428;-71
2020/12/30 03:27:33;;;;;;;3.40;2.27;;;3.80;99.90;;;;;;5068873;28;20455;-71
2020/12/30 03:30:00;;;;;;;2.90;1.97;;;3.80;99.90;;;;;;5068791;28;21057;-71
2020/12/30 03:32:26;;;;;;;2.60;1.90;;;3.70;99.90;;;;;;5069031;28;20431;-71
2020/12/30 03:34:54;;;;;;;3.97;2.70;;;3.70;99.90;;;;;;5069272;28;20848;-71
2020/12/30 03:37:21;;;;;;;2.50;2.20;;;3.80;99.90;;;;;;5068638;28;20456;-71
2020/12/30 03:39:48;;;;;;;3.57;2.50;;;3.80;99.90;;;;;;5068982;28;20439;-71
2020/12/30 03:42:14;;;;;;;3.37;1.80;;;3.90;99.90;;;;;;5068642;28;20510;-71
2020/12/30 03:44:41;;;;;;;3.70;2.30;;;3.90;99.90;;;;;;5068760;28;20438;-71
2020/12/30 03:47:07;;;;;;;4.73;2.23;;;3.80;99.90;;;;;;5068445;28;20451;-71
2020/12/30 03:49:34;;;;;;;3.47;1.87;;;3.70;99.90;;;;;;5068684;28;20434;-71
2020/12/30 03:52:02;;;;;;;4.20;2.20;;;3.70;99.90;;;;;;5068898;28;20427;-71
2020/12/30 03:54:28;;;;;;;3.20;1.77;;;3.70;99.90;;;;;;5068444;28;20446;-71
2020/12/30 03:56:55;;;;;;;2.50;1.93;;;3.70;99.90;;;;;;5068369;28;20454;-71
2020/12/30 03:59:21;;;;;;;2.93;1.90;;;3.70;99.90;;;;;;5068642;28;20454;-71
2020/12/30 04:01:48;;;;;;;2.80;2.23;;;3.60;99.90;;;;;;5068525;28;20530;-71
2020/12/30 04:04:15;;;;;;;4.00;2.27;;;3.40;99.90;;;;;;5068447;28;20431;-71
2020/12/30 04:06:42;;;;;;;3.33;1.77;;;3.20;99.90;;;;;;5068319;28;20454;-71
2020/12/30 04:09:09;;;;;;;2.50;2.20;;;3.10;99.90;;;;;;5068496;28;20449;-71
2020/12/30 04:11:36;;;;;;;3.60;2.20;;;3.00;99.90;;;;;;5068265;28;20470;-71
2020/12/30 04:14:03;;;;;;;5.77;1.90;;;2.90;99.90;;;;;;5068377;28;20910;-71
2020/12/30 04:16:29;;;;;;;3.35;2.60;;;2.80;99.90;;;;;;5066986;28;20789;-71
2020/12/30 04:18:56;;;;;;;2.77;2.27;;;2.70;99.90;;;;;;5068396;28;20569;-71
2020/12/30 04:21:23;;;;;;;2.70;2.10;;;2.70;99.90;;;;;;5068173;28;20435;-71
2020/12/30 04:23:51;;;;;;;3.67;1.83;;;2.70;99.90;;;;;;5068473;28;20446;-71
2020/12/30 04:26:19;;;;;;;2.23;1.83;;;2.60;99.90;;;;;;5068108;28;20438;-71
2020/12/30 04:28:45;;;;;;;17.23;2.47;;;2.60;99.90;;;;;;5068338;28;20436;-71
2020/12/30 04:31:13;;;;;;;2.70;1.93;;;2.60;99.90;;;;;;5068647;28;20985;-71
2020/12/30 04:33:40;;;;;;;3.47;1.70;;;2.60;99.90;;;;;;5068491;28;20448;-71
2020/12/30 04:36:07;;;;;;;5.03;2.13;;;2.70;99.90;;;;;;5068417;28;20440;-71
2020/12/30 04:38:35;;;;;;;4.50;2.07;;;2.70;99.90;;;;;;5071066;28;20439;-71
2020/12/30 04:41:03;;;;;;;2.83;1.80;;;2.70;99.90;;;;;;5072002;28;20443;-71
2020/12/30 04:43:34;;;;;;;3.60;2.00;;;2.60;99.90;;;;;;5072199;28;20431;-71
2020/12/30 04:46:00;;;;;;;2.87;2.07;;;2.60;99.90;;;;;;5071211;28;20474;-71
2020/12/30 04:48:28;;;;;;;3.93;1.97;;;2.60;99.90;;;;;;5071182;28;20867;-71
2020/12/30 04:50:55;;;;;;;3.80;1.90;;;2.50;99.90;;;;;;5070667;28;20470;-71
2020/12/30 04:53:22;;;;;;;3.03;1.73;;;2.50;99.90;;;;;;5071769;28;20442;-71
2020/12/30 04:55:49;;;;;;;3.20;1.90;;;2.40;99.90;;;;;;5072061;28;20489;-71
2020/12/30 04:58:17;;;;;;;2.50;1.87;;;2.40;99.90;;;;;;5071801;28;20477;-71
2020/12/30 05:00:46;;;;;;;2.63;2.13;;;2.20;99.90;;;;;;5071516;28;20439;-71
2020/12/30 05:03:14;;;;;;;2.80;1.93;;;2.20;99.90;;;;;;5071537;28;20435;-71
2020/12/30 05:05:42;;;;;;;6.60;2.27;;;2.10;99.90;;;;;;5071284;28;20816;-71
2020/12/30 05:08:10;;;;;;;4.90;2.60;;;1.90;99.90;;;;;;5071380;28;20455;-71
2020/12/30 05:10:37;;;;;;;3.43;2.23;;;1.90;99.90;;;;;;5071628;28;20475;-72
2020/12/30 05:13:04;;;;;;;4.13;3.00;;;1.90;99.90;;;;;;5071470;28;20444;-71
2020/12/30 05:15:31;;;;;;;4.23;2.50;;;2.00;99.90;;;;;;5071408;28;20427;-71
2020/12/30 05:17:59;;;;;;;5.00;2.60;;;2.00;99.90;;;;;;5071402;28;20950;-71
2020/12/30 05:20:25;;;;;;;2.60;1.90;;;1.90;99.90;;;;;;5071712;28;20493;-71
2020/12/30 05:22:53;;;;;;;3.40;2.20;;;1.90;99.90;;;;;;5072877;28;20856;-71
2020/12/30 05:25:25;;;;;;;5.37;2.23;;;1.80;99.90;;;;;;5082454;28;20522;-71
2020/12/30 05:27:52;;;;;;;2.90;2.20;;;1.90;99.90;;;;;;5070982;28;20455;-71
2020/12/30 05:30:21;;;;;;;2.70;2.07;;;1.90;99.90;;;;;;5071120;28;20843;-70
2020/12/30 05:32:52;;;;;;;3.83;2.87;;;2.00;99.90;;;;;;5071473;28;20760;-71
2020/12/30 05:35:20;;;;;;;3.30;2.20;;;2.10;99.90;;;;;;5071372;28;20428;-70
2020/12/30 05:37:47;;;;;;;3.60;2.57;;;2.10;99.90;;;;;;5070782;28;20558;-70
2020/12/30 05:40:20;;;;;;;11.03;2.40;;;2.20;99.90;;;;;;5071774;28;20454;-71
2020/12/30 05:42:46;;;;;;;2.67;2.10;;;2.30;99.90;;;;;;5071358;28;20510;-71
2020/12/30 05:45:18;;;;;;;4.23;2.43;;;2.20;99.90;;;;;;5071407;28;20420;-71
2020/12/30 05:47:45;;;;;;;4.33;3.27;;;2.20;99.90;;;;;;5071122;28;20845;-71
2020/12/30 05:50:12;;;;;;;5.17;2.83;;;2.20;99.90;;;;;;5070888;28;20486;-71
2020/12/30 05:52:40;;;;;;;4.37;2.27;;;2.20;99.90;;;;;;5070779;28;20510;-71
2020/12/30 05:55:09;;;;;;;4.27;2.77;;;2.30;99.90;;;;;;5070938;28;20427;-71
2020/12/30 05:57:37;;;;;;;4.13;3.00;;;2.40;99.90;;;;;;5070649;28;20508;-71
2020/12/30 06:00:08;;;;;;;6.07;2.60;;;2.50;99.90;;;;;;5070456;28;20957;-71
2020/12/30 06:02:40;;;;;;;3.60;2.23;;;2.50;99.90;;;;;;5070590;28;20427;-71
2020/12/30 06:05:14;;;;;;;3.50;2.37;;;2.70;99.90;;;;;;5070439;28;20515;-71
2020/12/30 06:07:42;;;;;;;3.50;2.10;;;2.70;99.90;;;;;;5070051;28;20451;-71
2020/12/30 06:10:10;;;;;;;4.73;3.83;;;2.70;99.90;;;;;;5070120;28;20532;-71
2020/12/30 06:12:50;;;;;;;5.43;2.23;;;2.80;99.90;;;;;;5070878;28;20443;-71
2020/12/30 06:15:18;;;;;;;2.70;1.90;;;2.80;99.90;;;;;;5070808;28;20439;-71
2020/12/30 06:17:56;;;;;;;2.53;1.70;;;2.80;99.90;;;;;;5069784;28;20459;-71
2020/12/30 06:20:25;;;;;;;4.73;2.73;;;2.90;99.90;;;;;;5069678;28;20490;-71
2020/12/30 06:22:58;;;;;;;3.20;1.87;;;3.00;99.90;;;;;;5068835;28;20458;-70
2020/12/30 06:25:26;;;;;;;3.30;2.17;;;3.00;99.90;;;;;;5069573;28;20824;-70
2020/12/30 06:27:54;;;;;;;4.57;2.27;;;3.20;99.90;;;;;;5069583;28;20903;-70
2020/12/30 06:30:22;;;;;;;4.53;2.20;;;3.30;99.90;;;;;;5069839;28;20866;-70
2020/12/30 06:32:49;;;;;;;3.40;2.43;;;3.30;99.90;;;;;;5069614;28;20446;-71
2020/12/30 06:35:25;;;;;;;3.97;2.40;;;3.30;99.90;;;;;;5069899;28;20431;-71
2020/12/30 06:37:51;;;;;;;5.97;2.60;;;3.40;99.90;;;;;;5069455;28;20447;-70
2020/12/30 06:40:20;;;;;;;4.43;2.40;;;3.40;99.90;;;;;;5069857;28;20440;-71
2020/12/30 06:42:49;;;;;;;2.97;1.70;;;3.40;99.90;;;;;;5069885;28;20799;-71
2020/12/30 06:45:36;;;;;;;3.20;2.53;;;3.30;99.90;;;;;;5069565;28;20439;-70
2020/12/30 06:48:03;;;;;;;3.70;2.17;;;3.20;99.90;;;;;;5069355;28;20463;-70
2020/12/30 06:50:29;;;;;;;4.23;2.33;;;3.10;99.90;;;;;;5069427;28;20474;-70
2020/12/30 06:52:56;;;;;;;3.27;2.40;;;3.00;99.90;;;;;;5069803;28;20458;-70
2020/12/30 06:55:45;;;;;;;3.70;2.50;;;2.80;99.90;;;;;;5069990;28;20431;-70
2020/12/30 06:58:47;;;;;;;3.60;2.50;;;2.70;99.90;;;;;;5069427;28;20981;-71
2020/12/30 07:01:16;;;;;;;2.87;2.27;;;2.60;99.90;;;;;;5069063;28;20757;-71
2020/12/30 07:03:43;;;;;;;3.33;2.20;;;2.60;99.90;;;;;;5069348;28;20435;-70
2020/12/30 07:06:34;;;;;;;2.83;2.30;;;2.60;99.90;;;;;;5068855;28;20490;-70
2020/12/30 07:09:03;;;;;;;4.20;2.80;;;2.50;99.90;;;;;;5054678;28;20450;-70
2020/12/30 07:11:52;;;;;;;5.30;3.20;;;2.50;99.90;;;;;;5069528;28;20475;-70
2020/12/30 07:14:20;;;;;;;4.67;2.97;;;2.40;99.90;;;;;;5069514;28;20451;-70
2020/12/30 07:16:52;;;;;;;5.07;3.00;;;2.30;99.90;;;;;;5069118;28;20873;-70
2020/12/30 07:19:21;;;;;;;3.77;2.57;;;2.30;99.90;;;;;;5068320;28;20450;-70
2020/12/30 07:22:05;;;;;;;4.60;2.80;;;2.20;99.90;;;;;;5068318;28;20488;-70
2020/12/30 07:24:34;;;;;;;8.53;3.37;;;2.20;99.90;;;;;;5069490;28;21015;-71
2020/12/30 07:27:05;;;;;;;4.83;3.60;;;2.20;99.90;;;;;;5068914;28;20470;-70
2020/12/30 07:29:33;;;;;;;7.63;2.73;;;2.10;99.90;;;;;;5069215;28;20447;-70
2020/12/30 07:32:01;;;;;;;5.90;3.80;;;2.20;99.90;;;;;;5069107;28;20470;-70
2020/12/30 07:34:29;;;;;;;6.03;4.90;;;2.30;99.90;;;;;;5069405;28;20922;-71
2020/12/30 07:36:56;;;;;;;5.63;3.30;;;2.30;99.90;;;;;;5068610;28;20459;-70
2020/12/30 07:39:28;;;;;;;6.70;3.80;;;2.30;99.90;;;;;;5069082;28;20443;-71
2020/12/30 07:41:55;;;;;;;4.17;3.40;;;2.40;99.90;;;;;;5060852;28;20990;-71
2020/12/30 07:44:23;;;;;;;7.07;3.47;;;2.40;99.90;;;;;;5048441;28;20432;-70
2020/12/30 07:46:49;;;;;;;4.67;3.80;;;2.40;99.90;;;;;;5048105;28;20492;-70
2020/12/30 07:49:20;;;;;;;5.60;3.53;;;2.50;99.90;;;;;;5047886;28;20510;-70
2020/12/30 07:51:51;;;;;;;4.90;4.03;;;2.60;99.90;;;;;;5047632;28;20503;-70
2020/12/30 07:54:19;;;;;;;4.07;2.93;;;2.70;99.90;;;;;;5047961;28;20447;-70
2020/12/30 07:56:46;;;;;;;4.80;3.30;;;2.80;99.90;;;;;;5071128;28;20484;-70
2020/12/30 07:59:20;;;;;;;4.40;3.00;;;2.80;99.90;;;;;;5087453;28;20473;-70
2020/12/30 08:02:01;;;;;;;6.60;3.77;;;2.90;99.90;;;;;;5088455;28;20943;-71
2020/12/30 08:04:29;;;;;;;5.77;3.00;;;3.10;99.90;;;;;;5088175;28;20434;-70
2020/12/30 08:06:56;;;;;;;4.20;2.70;;;3.20;99.90;;;;;;5087983;28;20971;-70
2020/12/30 08:09:27;;;;;;;5.00;3.47;;;3.30;99.90;;;;;;5088247;28;20925;-71
2020/12/30 08:11:55;;;;;;;4.93;2.70;;;3.40;99.90;;;;;;5088683;28;20972;-70
2020/12/30 08:14:23;;;;;;;8.83;3.17;;;3.40;99.90;;;;;;5086228;28;20459;-70
2020/12/30 08:16:54;;;;;;;3.40;2.60;;;3.50;99.90;;;;;;5088150;28;20451;-70
2020/12/30 08:19:33;;;;;;;4.90;3.47;;;3.60;99.90;;;;;;5071188;28;20767;-70
2020/12/30 08:22:05;;;;;;;3.23;2.90;;;3.70;99.90;;;;;;5063753;28;20439;-71
2020/12/30 08:24:32;;;;;;;6.33;3.27;;;3.80;99.90;;;;;;5071954;28;20902;-70
2020/12/30 08:26:59;;;;;;;4.27;2.93;;;3.90;99.90;;;;;;5071416;28;20455;-70
2020/12/30 08:29:30;;;;;;;3.87;2.93;;;4.00;99.90;;;;;;5071638;28;20443;-71
2020/12/30 08:32:00;;;;;;;3.83;2.47;;;4.20;99.90;;;;;;5071257;28;20483;-72
2020/12/30 08:34:33;;;;;;;6.23;2.87;;;4.20;99.90;;;;;;5071922;28;20435;-70
2020/12/30 08:37:04;;;;;;;4.63;3.07;;;4.40;99.90;;;;;;5071665;28;20578;-70
2020/12/30 08:39:33;;;;;;;3.90;2.87;;;4.60;99.90;;;;;;5071604;28;20423;-70
2020/12/30 08:42:03;;;;;;;4.00;2.53;;;4.80;99.90;;;;;;5071729;28;20777;-71
2020/12/30 08:44:42;;;;;;;4.27;3.00;;;5.00;99.90;;;;;;5071423;28;20508;-70
2020/12/30 08:47:13;;;;;;;4.27;3.20;;;5.20;99.90;;;;;;5071361;28;20471;-70
2020/12/30 08:49:43;;;;;;;4.27;2.60;;;5.40;99.90;;;;;;5071305;28;20438;-70
2020/12/30 08:52:20;;;;;;;5.67;3.00;;;5.50;99.90;;;;;;5071582;28;20883;-70
2020/12/30 08:54:47;;;;;;;3.50;2.17;;;5.60;99.90;;;;;;5072242;28;20812;-70
2020/12/30 08:57:20;;;;;;;3.93;3.33;;;5.60;99.90;;;;;;5071604;28;20800;-70
2020/12/30 08:59:47;;;;;;;6.70;2.70;;;5.60;99.90;;;;;;5071319;28;20561;-70
2020/12/30 09:02:14;;;;;;;3.67;3.20;;;5.50;99.90;;;;;;5070613;28;20461;-70
2020/12/30 09:04:53;;;;;;;3.13;2.50;;;5.60;99.90;;;;;;5070242;28;20876;-70
2020/12/30 09:07:26;;;;;;;4.30;3.00;;;5.50;99.90;;;;;;5070138;28;20451;-70
2020/12/30 09:10:06;;;;;;;3.47;2.70;;;5.40;99.90;;;;;;5070546;28;20427;-70
2020/12/30 09:12:33;;;;;;;3.70;2.60;;;5.30;99.90;;;;;;5070795;28;20454;-70
2020/12/30 09:14:59;;;;;;;4.63;2.60;;;5.40;99.90;;;;;;5070736;28;20435;-70
2020/12/30 09:17:26;;;;;;;4.70;3.27;;;5.50;99.90;;;;;;5070259;28;20451;-70
2020/12/30 09:20:08;;;;;;;3.27;2.50;;;5.50;99.90;;;;;;5070119;28;20442;-70
2020/12/30 09:22:35;;;;;;;4.50;3.00;;;5.70;99.90;;;;;;5070696;28;20432;-71
2020/12/30 09:25:02;;;;;;;4.80;2.60;;;5.70;99.90;;;;;;5069823;28;20474;-70
2020/12/30 09:27:33;;;;;;;3.30;3.00;;;5.90;99.90;;;;;;5073918;28;20459;-70
2020/12/30 09:30:08;;;;;;;3.50;2.60;;;5.90;99.90;;;;;;5069455;28;20440;-71
2020/12/30 09:32:35;;;;;;;3.40;2.00;;;6.00;99.90;;;;;;5069982;28;20438;-70
2020/12/30 09:35:01;;;;;;;4.37;3.00;;;6.10;99.90;;;;;;5071450;28;20443;-70
2020/12/30 09:37:28;;;;;;;3.60;2.40;;;6.20;99.90;;;;;;5070272;28;20466;-71
2020/12/30 09:40:09;;;;;;;3.20;2.60;;;6.30;99.90;;;;;;5070674;28;20485;-70
2020/12/30 09:42:37;;;;;;;6.20;2.53;;;6.30;99.90;;;;;;5071484;28;20428;-70
2020/12/30 09:48:30;;;;;;;4.00;2.43;;;6.60;99.90;;;;;;5068578;28;20552;-70
2020/12/30 09:50:57;;;;;;;4.53;2.60;;;6.60;99.90;;;;;;5073472;28;20475;-70
2020/12/30 09:53:29;;;;;;;4.10;2.30;;;6.60;99.90;;;;;;5073390;28;20783;-71
2020/12/30 09:55:57;;;;;;;6.23;2.47;;;6.60;99.90;;;;;;5069492;28;20466;-72
2020/12/30 09:58:24;;;;;;;4.00;2.03;;;6.80;99.90;;;;;;5044248;28;663524;-70
2020/12/30 10:00:50;;;;;;;3.50;2.10;;;6.80;99.90;;;;;;5067310;28;20605;-70
2020/12/30 10:03:17;;;;;;;3.47;1.97;;;6.90;99.90;;;;;;5068946;28;21348;-70
2020/12/30 10:05:43;;;;;;;4.23;1.90;;;6.90;99.90;;;;;;5071120;28;20914;-70
2020/12/30 10:08:10;;;;;;;3.80;1.90;;;6.90;99.90;;;;;;5071390;28;20455;-70
2020/12/30 10:10:36;;;;;;;3.50;2.20;;;6.90;99.90;;;;;;5069863;28;20807;-70
2020/12/30 10:13:04;;;;;;;4.60;2.37;;;6.90;99.90;;;;;;5078811;28;20430;-70
2020/12/30 10:15:30;;;;;;;3.70;2.30;;;6.80;99.90;;;;;;5079483;28;20451;-71
2020/12/30 10:17:57;;;;;;;3.30;2.20;;;6.60;99.90;;;;;;5069252;28;20455;-70
2020/12/30 10:20:24;;;;;;;3.07;2.00;;;6.70;99.90;;;;;;5085204;28;20446;-71
2020/12/30 10:22:50;;;;;;;4.13;2.57;;;6.70;99.90;;;;;;5070873;28;20934;-70
2020/12/30 10:25:17;;;;;;;3.03;1.90;;;6.60;99.90;;;;;;5071149;28;20462;-70
2020/12/30 10:27:45;;;;;;;2.73;1.80;;;6.50;99.90;;;;;;5078025;28;20458;-70
2020/12/30 10:30:12;;;;;;;3.37;2.30;;;6.50;99.90;;;;;;5070437;28;20462;-70
2020/12/30 10:32:39;;;;;;;6.77;3.93;;;6.40;99.90;;;;;;5067321;28;20427;-71
2020/12/30 10:35:06;;;;;;;5.27;3.63;;;6.40;99.90;;;;;;5070315;28;20513;-70
2020/12/30 10:37:33;;;;;;;5.40;3.30;;;6.50;99.90;;;;;;5070859;28;20451;-71
2020/12/30 10:40:00;;;;;;;2.80;2.20;;;6.40;99.90;;;;;;5054633;28;20431;-72
2020/12/30 10:42:26;;;;;;;3.17;2.17;;;6.40;99.90;;;;;;5071345;28;20446;-73
2020/12/30 10:44:53;;;;;;;3.20;2.00;;;6.50;99.90;;;;;;5071603;28;20431;-74
2020/12/30 10:47:20;;;;;;;3.37;2.13;;;6.60;99.90;;;;;;5068833;28;20468;-74
2020/12/30 10:49:47;;;;;;;4.47;2.60;;;6.60;99.90;;;;;;5071070;28;20442;-74
2020/12/30 10:52:13;;;;;;;4.40;2.27;;;6.70;99.90;;;;;;5083947;28;20500;-74
2020/12/30 10:54:42;;;;;;;2.40;1.73;;;6.80;99.90;;;;;;5070461;28;20439;-73
2020/12/30 10:57:10;;;;;;;3.03;1.90;;;6.90;99.90;;;;;;5070760;28;20455;-74
2020/12/30 10:59:36;;;;;;;4.30;2.20;;;6.90;99.90;;;;;;5070551;28;20585;-75
2020/12/30 11:02:03;;;;;;;2.90;2.13;;;6.90;99.90;;;;;;5070265;28;20458;-74
2020/12/30 11:04:31;;;;;;;3.93;2.30;;;6.90;99.90;;;;;;5071920;28;20997;-74
2020/12/30 11:07:01;;;;;;;3.70;2.50;;;7.00;99.90;;;;;;5074684;28;20483;-74
2020/12/30 11:09:28;;;;;;;3.50;2.17;;;7.00;99.90;;;;;;5077129;28;20448;-75
2020/12/30 11:11:55;;;;;;;3.80;2.33;;;6.90;99.90;;;;;;5088736;28;20535;-78
2020/12/30 11:14:22;;;;;;;6.17;2.90;;;6.90;99.90;;;;;;5092902;28;20446;-76
2020/12/30 11:16:49;;;;;;;4.97;2.53;;;6.90;99.90;;;;;;5073044;28;20498;-77
2020/12/30 11:19:15;;;;;;;3.40;2.30;;;6.90;99.90;;;;;;5084228;28;20544;-75
2020/12/30 11:21:49;;;;;;;6.73;3.17;;;6.90;99.90;;;;;;5090032;28;20704;-74
2020/12/30 11:24:16;;;;;;;5.10;2.47;;;6.80;99.90;;;;;;5084529;28;20445;-73
2020/12/30 11:26:44;;;;;;;3.53;2.90;;;6.80;99.90;;;;;;5081616;28;20457;-72
2020/12/30 11:29:11;;;;;;;4.90;3.13;;;6.80;99.90;;;;;;5091525;28;20522;-72
2020/12/30 11:31:37;;;;;;;4.00;2.93;;;6.70;99.90;;;;;;5092405;28;20473;-72
2020/12/30 11:34:04;;;;;;;4.93;2.87;;;6.60;99.90;;;;;;5080225;28;20546;-75
2020/12/30 11:36:31;;;;;;;3.47;2.30;;;6.70;99.90;;;;;;5084514;28;20455;-75
2020/12/30 11:38:58;;;;;;;5.03;2.80;;;6.80;99.90;;;;;;5089000;28;20435;-76
2020/12/30 11:41:44;;;;;;;5.10;2.93;;;6.80;99.90;;;;;;5104667;28;20442;-76
2020/12/30 11:44:15;;;;;;;4.60;2.90;;;7.00;99.90;;;;;;5078760;28;20518;-75
2020/12/30 11:46:51;;;;;;;3.70;2.87;;;6.90;99.90;;;;;;5083748;28;20481;-75
2020/12/30 11:49:18;;;;;;;4.40;3.17;;;7.00;99.90;;;;;;5075221;28;20454;-76
2020/12/30 11:51:45;;;;;;;4.67;3.07;;;7.20;99.90;;;;;;5078286;28;20516;-76
2020/12/30 11:54:12;;;;;;;5.00;2.70;;;7.40;99.90;;;;;;5069326;28;20864;-72
2020/12/30 11:56:38;;;;;;;4.93;2.63;;;7.50;99.90;;;;;;5082119;28;20492;-72
2020/12/30 11:59:05;;;;;;;5.57;2.83;;;7.70;99.90;;;;;;5070392;28;20540;-72
2020/12/30 12:01:35;;;;;;;4.13;2.57;;;7.80;99.90;;;;;;5072117;28;20470;-72
2020/12/30 12:04:02;;;;;;;4.73;3.27;;;8.00;99.90;;;;;;5071086;28;20443;-72
2020/12/30 12:06:29;;;;;;;3.83;3.00;;;8.20;99.90;;;;;;5071086;28;20831;-71
2020/12/30 12:08:56;;;;;;;2.97;2.30;;;8.30;99.90;;;;;;5099234;28;20427;-74
2020/12/30 12:11:23;;;;;;;5.20;2.27;;;8.40;99.90;;;;;;5093614;28;20486;-75
2020/12/30 12:13:50;;;;;;;3.93;2.87;;;8.50;99.90;;;;;;5067487;28;20450;-75
2020/12/30 12:16:16;;;;;;;3.97;2.10;;;8.40;99.90;;;;;;5089346;28;20431;-77
2020/12/30 12:18:43;;;;;;;3.87;2.30;;;8.30;99.90;;;;;;5092299;28;20423;-75
2020/12/30 12:21:09;;;;;;;2.53;1.20;;;8.20;99.90;;;;;;5090232;28;20450;-77
2020/12/30 12:23:36;;;;;;;2.90;1.77;;;7.90;99.90;;;;;;5084518;28;21075;-75
2020/12/30 12:26:02;;;;;;;4.70;1.60;;;7.60;99.90;;;;;;5078764;28;20439;-75
2020/12/30 12:28:58;;;;;;;3.13;1.60;;;7.40;99.90;;;;;;5069823;28;20867;-74
2020/12/30 12:31:24;;;;;;;2.50;1.70;;;7.30;99.90;;;;;;5069806;28;20479;-71
2020/12/30 12:33:51;;;;;;;1.83;1.23;;;7.20;99.90;;;;;;5082753;28;20442;-72
2020/12/30 12:36:19;;;;;;;2.20;1.20;;;7.10;99.90;;;;;;5068189;28;20446;-72
2020/12/30 12:38:46;;;;;;;1.70;1.30;;;7.10;99.90;;;;;;5069669;28;20491;-71
2020/12/30 12:41:14;;;;;;;2.53;1.40;;;7.00;99.90;;;;;;5068917;28;21077;-71
2020/12/30 12:43:42;;;;;;;1.83;1.00;;;7.00;99.90;;;;;;5068440;28;20875;-71
2020/12/30 12:46:15;;;;;;;2.13;1.30;;;7.00;99.90;;;;;;5068801;28;20920;-71
2020/12/30 12:48:41;;;;;;;2.53;1.20;;;6.90;99.90;;;;;;5068712;28;20848;-72
2020/12/30 12:51:11;;;;;;;1.80;0.90;;;7.00;99.90;;;;;;5068967;28;20475;-71
2020/12/30 12:53:38;;;;;;;3.27;1.73;;;7.10;99.90;;;;;;5064673;28;20448;-72
2020/12/30 12:56:04;;;;;;;2.33;1.40;;;7.20;99.90;;;;;;5052752;28;20440;-72
2020/12/30 12:58:33;;;;;;;2.70;1.57;;;7.30;99.90;;;;;;5055300;28;20482;-72
2020/12/30 13:01:00;;;;;;;2.37;1.47;;;7.20;99.90;;;;;;5071343;28;20439;-72
2020/12/30 13:03:27;;;;;;;4.23;1.73;;;7.20;99.90;;;;;;5070622;28;20435;-72
2020/12/30 13:05:54;;;;;;;5.37;1.80;;;7.20;99.90;;;;;;5050308;28;20494;-72
2020/12/30 13:08:20;;;;;;;2.70;1.50;;;7.20;99.90;;;;;;5057024;28;20482;-73